Time;durP1;ratioP1;P1;durP2;ratioP2;P2;SDS_P1;SDS_P2;PMS_P1;PMS_P2;Temp;Humidity;BMP_temperature;BMP_pressure;BME280_temperature;BME280_humidity;BME280_pressure;Samples;Min_cycle;Max_cycle;Signal;HPM_P1;HPM_P2
2024/03/26 00:00:41;;;;;;;5.03;2.05;;;9.10;99.90;;;;;;4160223;28;20038;-67
2024/03/26 00:02:42;;;;;;;5.13;1.73;;;9.10;99.90;;;;;;4159581;28;20095;-67
2024/03/26 00:04:42;;;;;;;4.80;1.77;;;9.10;99.90;;;;;;4160858;28;20057;-67
2024/03/26 00:06:43;;;;;;;5.60;1.67;;;9.10;99.90;;;;;;4160046;28;20088;-68
2024/03/26 00:08:43;;;;;;;2.88;1.60;;;9.10;99.90;;;;;;4161983;28;20025;-67
2024/03/26 00:10:44;;;;;;;6.28;1.73;;;9.10;99.90;;;;;;4160834;28;20034;-67
2024/03/26 00:12:44;;;;;;;4.53;1.77;;;9.00;99.90;;;;;;4160607;28;20382;-67
2024/03/26 00:14:47;;;;;;;3.83;1.60;;;9.10;99.90;;;;;;4160965;28;20087;-67
2024/03/26 00:16:47;;;;;;;4.05;1.73;;;9.00;99.90;;;;;;4160788;28;20492;-68
2024/03/26 00:18:48;;;;;;;7.22;1.50;;;9.00;99.90;;;;;;4161979;28;20025;-68
2024/03/26 00:20:48;;;;;;;8.15;1.80;;;9.10;99.90;;;;;;4157964;28;20489;-68
2024/03/26 00:22:49;;;;;;;4.53;1.50;;;9.10;99.90;;;;;;4160148;28;20051;-67
2024/03/26 00:24:50;;;;;;;6.80;1.42;;;9.10;99.90;;;;;;4151774;28;20120;-67
2024/03/26 00:26:50;;;;;;;3.30;1.60;;;9.00;99.90;;;;;;4156851;28;20049;-68
2024/03/26 00:28:51;;;;;;;5.43;1.70;;;9.10;99.90;;;;;;4160990;28;20049;-68
2024/03/26 00:30:52;;;;;;;3.15;1.30;;;9.00;99.90;;;;;;4160867;28;20033;-67
2024/03/26 00:32:52;;;;;;;3.78;1.50;;;9.00;99.90;;;;;;4160343;28;20107;-67
2024/03/26 00:34:53;;;;;;;3.00;1.40;;;9.00;99.90;;;;;;4161303;28;20041;-68
2024/03/26 00:36:54;;;;;;;2.65;1.40;;;9.00;99.90;;;;;;4160546;28;20033;-67
2024/03/26 00:38:54;;;;;;;5.78;1.70;;;9.00;99.90;;;;;;4152266;28;20065;-67
2024/03/26 00:40:55;;;;;;;7.53;2.13;;;9.00;99.90;;;;;;4160818;28;20037;-67
2024/03/26 00:42:55;;;;;;;5.10;1.85;;;8.90;99.90;;;;;;4161604;28;20042;-67
2024/03/26 00:44:56;;;;;;;5.53;1.70;;;8.90;99.90;;;;;;4161196;28;20540;-68
2024/03/26 00:46:56;;;;;;;2.92;1.38;;;9.00;99.90;;;;;;4160846;28;20029;-67
2024/03/26 00:48:57;;;;;;;4.72;1.50;;;9.00;99.90;;;;;;4161817;28;20037;-67
2024/03/26 00:50:57;;;;;;;5.00;1.63;;;9.00;99.90;;;;;;4160515;28;20067;-67
2024/03/26 00:52:58;;;;;;;6.22;1.88;;;9.00;99.90;;;;;;4161308;28;20022;-63
2024/03/26 00:54:59;;;;;;;4.30;1.77;;;8.90;99.90;;;;;;4159001;28;20168;-67
2024/03/26 00:56:59;;;;;;;5.93;1.98;;;8.90;99.90;;;;;;4155111;28;20513;-67
2024/03/26 00:59:00;;;;;;;6.15;1.90;;;8.90;99.90;;;;;;4160381;28;20120;-67
2024/03/26 01:01:06;;;;;;;4.47;1.92;;;8.80;99.90;;;;;;4158531;28;20037;-66
2024/03/26 01:03:07;;;;;;;4.97;1.90;;;8.90;99.90;;;;;;4158592;28;20462;-66
2024/03/26 01:05:08;;;;;;;4.35;1.58;;;8.80;99.90;;;;;;4157776;28;20092;-68
2024/03/26 01:07:08;;;;;;;5.32;1.70;;;8.80;99.90;;;;;;4156880;28;20402;-67
2024/03/26 01:09:09;;;;;;;7.65;2.47;;;8.80;99.90;;;;;;4158717;28;20029;-66
2024/03/26 01:11:12;;;;;;;5.90;1.65;;;8.80;99.90;;;;;;4159810;28;20030;-66
2024/03/26 01:13:14;;;;;;;4.45;1.92;;;8.80;99.90;;;;;;4160538;28;20029;-66
2024/03/26 01:15:15;;;;;;;5.50;1.70;;;8.80;99.90;;;;;;4159667;28;20491;-67
2024/03/26 01:17:15;;;;;;;4.97;1.85;;;8.80;99.90;;;;;;4160008;28;20036;-67
2024/03/26 01:19:16;;;;;;;4.45;1.95;;;8.70;99.90;;;;;;4160268;28;20034;-67
2024/03/26 01:21:16;;;;;;;6.55;2.00;;;8.70;99.90;;;;;;4159538;28;20105;-66
2024/03/26 01:23:17;;;;;;;5.50;1.83;;;8.60;99.90;;;;;;4160647;28;20423;-67
2024/03/26 01:25:18;;;;;;;5.95;1.85;;;8.70;99.90;;;;;;4154083;28;20413;-67
2024/03/26 01:27:18;;;;;;;7.47;2.40;;;8.60;99.90;;;;;;4160070;28;20069;-67
2024/03/26 01:29:19;;;;;;;4.15;1.85;;;8.60;99.90;;;;;;4160446;28;20038;-67
2024/03/26 01:31:19;;;;;;;4.43;1.70;;;8.60;99.90;;;;;;4156550;28;20048;-66
2024/03/26 01:33:20;;;;;;;6.75;2.50;;;8.60;99.90;;;;;;4154531;28;20041;-66
2024/03/26 01:35:20;;;;;;;5.75;2.08;;;8.60;99.90;;;;;;4154911;28;20030;-67
2024/03/26 01:37:21;;;;;;;5.93;2.20;;;8.50;99.90;;;;;;4155252;28;20061;-67
2024/03/26 01:39:22;;;;;;;7.07;2.35;;;8.50;99.90;;;;;;4155651;28;20049;-66
2024/03/26 01:41:22;;;;;;;7.70;2.42;;;8.40;99.90;;;;;;4156607;28;20044;-67
2024/03/26 01:43:23;;;;;;;8.10;2.35;;;8.40;99.90;;;;;;4160064;28;20540;-67
2024/03/26 01:45:24;;;;;;;4.43;2.20;;;8.30;99.90;;;;;;4161562;28;20034;-67
2024/03/26 01:47:26;;;;;;;7.15;2.05;;;8.30;99.90;;;;;;4163266;28;20422;-67
2024/03/26 01:49:32;;;;;;;8.00;2.38;;;8.30;99.90;;;;;;4163457;28;20167;-66
2024/03/26 01:51:34;;;;;;;6.13;2.13;;;8.30;99.90;;;;;;4142749;28;20042;-66
2024/03/26 01:53:35;;;;;;;9.90;2.10;;;8.30;99.90;;;;;;4163546;28;20418;-66
2024/03/26 01:55:36;;;;;;;5.80;2.45;;;8.30;99.90;;;;;;4161907;28;20037;-67
2024/03/26 01:57:36;;;;;;;4.72;2.08;;;8.30;99.90;;;;;;4162669;28;20065;-66
2024/03/26 01:59:39;;;;;;;5.03;2.10;;;8.40;99.90;;;;;;4162702;28;20041;-67
2024/03/26 02:01:39;;;;;;;5.78;2.38;;;8.30;99.90;;;;;;4160829;28;20033;-67
2024/03/26 02:03:40;;;;;;;3.75;1.58;;;8.40;99.90;;;;;;4163804;28;20029;-65
2024/03/26 02:05:41;;;;;;;8.18;2.42;;;8.40;99.90;;;;;;4157215;28;20041;-65
2024/03/26 02:07:41;;;;;;;5.00;2.03;;;8.40;99.90;;;;;;4162585;28;20098;-65
2024/03/26 02:09:44;;;;;;;4.32;1.83;;;8.40;99.90;;;;;;4163646;28;20059;-64
2024/03/26 02:11:44;;;;;;;6.80;1.98;;;8.40;99.90;;;;;;4163197;28;20026;-65
2024/03/26 02:13:46;;;;;;;2.72;1.70;;;8.40;99.90;;;;;;4163655;28;20065;-65
2024/03/26 02:15:46;;;;;;;5.47;2.33;;;8.30;99.90;;;;;;4162586;28;20091;-65
2024/03/26 02:17:47;;;;;;;5.50;2.40;;;8.40;99.90;;;;;;4161849;28;20527;-65
2024/03/26 02:19:47;;;;;;;9.23;2.63;;;8.40;99.90;;;;;;4163762;28;20045;-65
2024/03/26 02:21:49;;;;;;;6.57;2.10;;;8.30;99.90;;;;;;4163044;28;20037;-65
2024/03/26 02:23:49;;;;;;;6.47;2.17;;;8.40;99.90;;;;;;4163252;28;20108;-65
2024/03/26 02:25:50;;;;;;;3.95;1.92;;;8.30;99.90;;;;;;4162683;28;20086;-65
2024/03/26 02:27:50;;;;;;;4.95;2.20;;;8.30;99.90;;;;;;4163065;28;20039;-65
2024/03/26 02:29:51;;;;;;;5.40;2.05;;;8.30;99.90;;;;;;4163548;28;20037;-65
2024/03/26 02:31:51;;;;;;;4.82;1.60;;;8.30;99.90;;;;;;4162907;28;20026;-65
2024/03/26 02:33:52;;;;;;;6.05;2.10;;;8.30;99.90;;;;;;4163306;28;20036;-65
2024/03/26 02:35:52;;;;;;;5.00;1.98;;;8.20;99.90;;;;;;4162732;28;20124;-65
2024/03/26 02:37:54;;;;;;;4.90;2.33;;;8.20;99.90;;;;;;4163796;28;20509;-65
2024/03/26 02:39:54;;;;;;;5.80;2.28;;;8.20;99.90;;;;;;4163395;28;20448;-65
2024/03/26 02:41:56;;;;;;;6.47;1.77;;;8.30;99.90;;;;;;4162803;28;20088;-65
2024/03/26 02:43:57;;;;;;;4.82;1.80;;;8.30;99.90;;;;;;4162731;28;20037;-65
2024/03/26 02:45:57;;;;;;;5.95;2.10;;;8.30;99.90;;;;;;4162185;28;20125;-65
2024/03/26 02:47:58;;;;;;;6.07;1.80;;;8.30;99.90;;;;;;4162023;28;20132;-65
2024/03/26 02:49:59;;;;;;;5.63;1.60;;;8.30;99.90;;;;;;4161421;28;20113;-65
2024/03/26 02:51:59;;;;;;;3.85;1.85;;;8.30;99.90;;;;;;4158914;28;20030;-65
2024/03/26 02:54:00;;;;;;;3.85;2.20;;;8.30;99.90;;;;;;4163212;28;20041;-65
2024/03/26 02:56:00;;;;;;;6.57;1.88;;;8.20;99.90;;;;;;4161579;28;20083;-65
2024/03/26 02:58:01;;;;;;;5.22;1.67;;;8.20;99.90;;;;;;4163105;28;20062;-65
2024/03/26 03:00:05;;;;;;;3.10;1.60;;;8.30;99.90;;;;;;4163010;28;20037;-66
2024/03/26 03:02:06;;;;;;;5.57;1.88;;;8.20;99.90;;;;;;4162078;28;20036;-65
2024/03/26 03:04:06;;;;;;;4.78;2.03;;;8.20;99.90;;;;;;4163142;28;20451;-66
2024/03/26 03:06:08;;;;;;;4.57;1.98;;;8.20;99.90;;;;;;4160820;28;20107;-65
2024/03/26 03:08:08;;;;;;;5.47;1.92;;;8.30;99.90;;;;;;4161629;28;20037;-66
2024/03/26 03:10:09;;;;;;;3.65;2.05;;;8.30;99.90;;;;;;4160530;28;20497;-66
2024/03/26 03:12:10;;;;;;;4.07;1.60;;;8.20;99.90;;;;;;4160516;28;20045;-65
2024/03/26 03:14:11;;;;;;;9.35;2.00;;;8.20;99.90;;;;;;4161056;28;20474;-65
2024/03/26 03:16:11;;;;;;;4.65;1.60;;;8.20;99.90;;;;;;4161193;28;20030;-65
2024/03/26 03:18:13;;;;;;;5.18;1.90;;;8.30;99.90;;;;;;4161353;28;20116;-65
2024/03/26 03:20:14;;;;;;;4.82;1.77;;;8.20;99.90;;;;;;4160861;28;20041;-65
2024/03/26 03:22:14;;;;;;;4.40;1.85;;;8.20;99.90;;;;;;4159561;28;20453;-65
2024/03/26 03:24:15;;;;;;;5.68;1.85;;;8.20;99.90;;;;;;4162290;28;20030;-65
2024/03/26 03:26:15;;;;;;;3.58;1.55;;;8.20;99.90;;;;;;4162239;28;20029;-65
2024/03/26 03:28:16;;;;;;;3.70;1.92;;;8.20;99.90;;;;;;4162492;28;20470;-65
2024/03/26 03:30:16;;;;;;;4.15;1.92;;;8.20;99.90;;;;;;4159827;28;20099;-65
2024/03/26 03:32:17;;;;;;;5.20;1.88;;;8.20;99.90;;;;;;4160501;28;20026;-65
2024/03/26 03:34:18;;;;;;;4.53;2.20;;;8.10;99.90;;;;;;4162516;28;20033;-65
2024/03/26 03:36:19;;;;;;;3.53;1.80;;;8.00;99.90;;;;;;4161742;28;20591;-65
2024/03/26 03:38:20;;;;;;;6.47;2.17;;;8.00;99.90;;;;;;4155553;28;20049;-65
2024/03/26 03:40:20;;;;;;;6.22;2.28;;;8.00;99.90;;;;;;4159925;28;20049;-66
2024/03/26 03:42:21;;;;;;;7.45;2.60;;;8.00;99.90;;;;;;4162257;28;20033;-65
2024/03/26 03:44:21;;;;;;;7.82;3.05;;;7.90;99.90;;;;;;4160767;28;20052;-65
2024/03/26 03:46:22;;;;;;;10.27;2.72;;;7.90;99.90;;;;;;4161531;28;20045;-65
2024/03/26 03:48:23;;;;;;;6.72;2.50;;;7.90;99.90;;;;;;4160234;28;20167;-65
2024/03/26 03:50:23;;;;;;;4.50;2.03;;;7.90;99.90;;;;;;4161266;28;20218;-65
2024/03/26 03:52:24;;;;;;;5.68;2.40;;;7.90;99.90;;;;;;4160806;28;20033;-65
2024/03/26 03:54:24;;;;;;;8.13;2.08;;;7.90;99.90;;;;;;4162105;28;20125;-65
2024/03/26 03:56:25;;;;;;;4.15;2.00;;;7.90;99.90;;;;;;4161019;28;20036;-65
2024/03/26 03:58:26;;;;;;;6.60;1.90;;;7.90;99.90;;;;;;4154986;28;20030;-65
2024/03/26 04:00:26;;;;;;;5.60;2.10;;;8.00;99.90;;;;;;4153348;28;20038;-65
2024/03/26 04:02:27;;;;;;;6.07;2.03;;;8.00;99.90;;;;;;4161555;28;20029;-65
2024/03/26 04:04:27;;;;;;;6.40;2.38;;;8.00;99.90;;;;;;4152224;28;20121;-65
2024/03/26 04:06:28;;;;;;;3.53;2.00;;;7.90;99.90;;;;;;4160149;28;20107;-65
2024/03/26 04:08:28;;;;;;;4.13;1.73;;;8.00;99.90;;;;;;4160038;28;20025;-65
2024/03/26 04:10:37;;;;;;;4.65;1.95;;;8.00;99.90;;;;;;4161363;28;20489;-65
2024/03/26 04:12:38;;;;;;;4.22;1.70;;;7.90;99.90;;;;;;4161094;28;20033;-65
2024/03/26 04:14:39;;;;;;;4.72;2.03;;;7.90;99.90;;;;;;4161579;28;20500;-65
2024/03/26 04:16:43;;;;;;;4.43;1.85;;;7.90;99.90;;;;;;4160678;28;20399;-65
2024/03/26 04:18:45;;;;;;;5.90;2.20;;;8.00;99.90;;;;;;4159659;28;20046;-65
2024/03/26 04:20:46;;;;;;;4.53;1.80;;;8.00;99.90;;;;;;4153572;28;20062;-65
2024/03/26 04:22:47;;;;;;;5.00;2.10;;;8.00;99.90;;;;;;4162167;28;20076;-66
2024/03/26 04:24:47;;;;;;;5.60;1.90;;;8.00;99.90;;;;;;4156361;28;21269;-67
2024/03/26 04:26:48;;;;;;;4.82;2.00;;;7.90;99.90;;;;;;4159562;28;20036;-67
2024/03/26 04:28:49;;;;;;;6.15;2.13;;;8.00;99.90;;;;;;4159814;28;20505;-66
2024/03/26 04:30:49;;;;;;;2.78;1.55;;;8.00;99.90;;;;;;4159531;28;20092;-66
2024/03/26 04:32:50;;;;;;;4.13;1.70;;;7.90;99.90;;;;;;4158701;28;20029;-67
2024/03/26 04:34:50;;;;;;;6.45;2.05;;;8.00;99.90;;;;;;4154905;28;20060;-67
2024/03/26 04:36:51;;;;;;;3.92;1.90;;;7.90;99.90;;;;;;4157673;28;20053;-67
2024/03/26 04:38:52;;;;;;;4.97;2.00;;;7.90;99.90;;;;;;4158638;28;20037;-67
2024/03/26 04:40:52;;;;;;;6.20;2.40;;;7.90;99.90;;;;;;4154415;28;20029;-67
2024/03/26 04:42:53;;;;;;;4.30;2.00;;;7.90;99.90;;;;;;4157047;28;21010;-67
2024/03/26 04:44:54;;;;;;;4.05;1.83;;;7.90;99.90;;;;;;4159566;28;20045;-66
2024/03/26 04:46:54;;;;;;;4.22;2.17;;;7.90;99.90;;;;;;4159253;28;20124;-66
2024/03/26 04:48:55;;;;;;;7.40;2.38;;;7.90;99.90;;;;;;4158839;28;20557;-66
2024/03/26 04:50:55;;;;;;;8.18;2.30;;;7.70;99.90;;;;;;4159479;28;20391;-66
2024/03/26 04:52:56;;;;;;;5.95;2.55;;;7.70;99.90;;;;;;4158129;28;20567;-67
2024/03/26 04:54:56;;;;;;;6.53;2.10;;;7.80;99.90;;;;;;4154523;28;20056;-67
2024/03/26 04:56:57;;;;;;;6.47;2.22;;;7.70;99.90;;;;;;4158469;28;20401;-67
2024/03/26 04:58:58;;;;;;;6.82;2.47;;;7.60;99.90;;;;;;4157492;28;20375;-66
2024/03/26 05:00:58;;;;;;;5.68;2.28;;;7.60;99.90;;;;;;4156187;28;20564;-67
2024/03/26 05:03:00;;;;;;;6.15;2.17;;;7.60;99.90;;;;;;4157108;28;20493;-63
2024/03/26 05:05:01;;;;;;;7.30;2.08;;;7.60;99.90;;;;;;4158070;28;20033;-67
2024/03/26 05:07:01;;;;;;;5.47;1.92;;;7.50;99.90;;;;;;4156595;28;20038;-64
2024/03/26 05:09:04;;;;;;;4.00;2.17;;;7.50;99.90;;;;;;4162164;28;20040;-64
2024/03/26 05:11:04;;;;;;;5.07;1.95;;;7.50;99.90;;;;;;4161097;28;20120;-64
2024/03/26 05:13:05;;;;;;;3.38;2.05;;;7.50;99.90;;;;;;4162092;28;20497;-64
2024/03/26 05:15:06;;;;;;;6.38;2.42;;;7.50;99.90;;;;;;4161577;28;20394;-63
2024/03/26 05:17:07;;;;;;;3.95;2.00;;;7.60;99.90;;;;;;4160365;28;20116;-63
2024/03/26 05:19:07;;;;;;;5.47;2.33;;;7.60;99.90;;;;;;4162320;28;20029;-63
2024/03/26 05:21:09;;;;;;;5.45;2.22;;;7.60;99.90;;;;;;4164556;28;20030;-63
2024/03/26 05:23:09;;;;;;;7.18;2.10;;;7.60;99.90;;;;;;4165436;28;20064;-63
2024/03/26 05:25:10;;;;;;;5.15;2.30;;;7.60;99.90;;;;;;4164867;28;20343;-64
2024/03/26 05:27:11;;;;;;;3.63;1.70;;;7.60;99.90;;;;;;4165262;28;20095;-63
2024/03/26 05:29:11;;;;;;;5.15;2.10;;;7.60;99.90;;;;;;4163654;28;20040;-63
2024/03/26 05:31:19;;;;;;;5.18;2.00;;;7.60;99.90;;;;;;4164538;28;20025;-63
2024/03/26 05:33:23;;;;;;;4.53;1.88;;;7.60;99.90;;;;;;4161777;28;20059;-68
2024/03/26 05:35:23;;;;;;;3.88;1.95;;;7.70;99.90;;;;;;4158616;28;20048;-58
2024/03/26 05:37:24;;;;;;;4.03;2.00;;;7.70;99.90;;;;;;4162751;28;20474;-59
2024/03/26 05:39:25;;;;;;;6.00;2.03;;;7.70;99.90;;;;;;4164326;28;20546;-59
2024/03/26 05:41:25;;;;;;;4.05;1.70;;;7.70;99.90;;;;;;4164256;28;20119;-59
2024/03/26 05:43:26;;;;;;;7.53;1.75;;;7.70;99.90;;;;;;4165079;28;20466;-59
2024/03/26 05:45:27;;;;;;;4.00;1.75;;;7.80;99.90;;;;;;4163147;28;20058;-58
2024/03/26 05:47:27;;;;;;;3.95;1.55;;;7.80;99.90;;;;;;4164980;28;20040;-59
2024/03/26 05:49:28;;;;;;;6.28;2.25;;;7.80;99.90;;;;;;4164807;28;20057;-59
2024/03/26 05:51:28;;;;;;;4.03;1.60;;;7.80;99.90;;;;;;4164635;28;20482;-59
2024/03/26 05:53:29;;;;;;;3.30;1.60;;;7.80;99.90;;;;;;4161939;28;20045;-58
2024/03/26 05:55:30;;;;;;;3.25;1.70;;;7.90;99.90;;;;;;4159613;28;20037;-59
2024/03/26 05:57:30;;;;;;;3.83;1.63;;;7.90;99.90;;;;;;4160669;28;20041;-59
2024/03/26 05:59:31;;;;;;;3.90;2.15;;;7.90;99.90;;;;;;4156774;28;20029;-59
2024/03/26 06:01:31;;;;;;;4.68;1.92;;;7.90;99.90;;;;;;4138357;28;20034;-62
2024/03/26 06:03:32;;;;;;;2.95;1.60;;;8.00;99.90;;;;;;4161593;28;20040;-59
2024/03/26 06:05:33;;;;;;;6.45;1.90;;;7.90;99.90;;;;;;4156190;28;20543;-66
2024/03/26 06:07:34;;;;;;;5.07;2.15;;;8.00;99.90;;;;;;4158559;28;20076;-66
2024/03/26 06:09:34;;;;;;;2.03;1.30;;;8.10;99.90;;;;;;4161900;28;20033;-59
2024/03/26 06:11:35;;;;;;;5.28;1.83;;;8.00;99.90;;;;;;4160390;28;20029;-68
2024/03/26 06:13:35;;;;;;;6.03;1.65;;;8.10;99.90;;;;;;4162332;28;20049;-63
2024/03/26 06:15:36;;;;;;;5.88;2.08;;;8.10;99.90;;;;;;4160422;28;20029;-64
2024/03/26 06:17:37;;;;;;;2.67;1.58;;;8.10;99.90;;;;;;4157623;28;20032;-61
2024/03/26 06:19:37;;;;;;;5.97;1.70;;;8.20;99.90;;;;;;4171470;28;20572;-59
2024/03/26 06:21:38;;;;;;;5.97;2.00;;;8.20;99.90;;;;;;4162536;28;20060;-59
2024/03/26 06:23:38;;;;;;;5.05;1.92;;;8.20;99.90;;;;;;4157613;28;20092;-67
2024/03/26 06:25:39;;;;;;;5.40;1.90;;;8.30;99.90;;;;;;4152483;28;20044;-67
2024/03/26 06:27:39;;;;;;;4.53;1.77;;;8.30;99.90;;;;;;4159400;28;20553;-67
2024/03/26 06:29:40;;;;;;;5.75;2.10;;;8.40;99.90;;;;;;4156708;28;20033;-67
2024/03/26 06:31:41;;;;;;;6.75;2.00;;;8.60;99.90;;;;;;4156035;28;20171;-66
2024/03/26 06:33:41;;;;;;;7.93;1.90;;;8.70;99.90;;;;;;4159345;28;20037;-73
2024/03/26 06:35:42;;;;;;;5.25;2.05;;;8.70;99.90;;;;;;4154821;28;20033;-69
2024/03/26 06:37:43;;;;;;;6.53;2.00;;;8.70;99.90;;;;;;4152130;28;20501;-70
2024/03/26 06:39:44;;;;;;;5.75;1.83;;;8.70;99.90;;;;;;4157866;28;20029;-70
2024/03/26 06:41:45;;;;;;;2.88;1.75;;;8.70;99.90;;;;;;4153144;28;20036;-71
2024/03/26 06:43:45;;;;;;;6.93;2.03;;;8.70;99.90;;;;;;4157560;28;20048;-70
2024/03/26 06:45:46;;;;;;;4.20;1.92;;;8.70;99.90;;;;;;4152783;28;20065;-70
2024/03/26 06:47:47;;;;;;;5.20;1.83;;;8.70;99.90;;;;;;4152880;28;20048;-70
2024/03/26 06:49:47;;;;;;;3.72;1.60;;;8.70;99.90;;;;;;4150389;28;20124;-70
2024/03/26 06:51:48;;;;;;;5.20;2.10;;;8.70;99.90;;;;;;4157692;28;20099;-70
2024/03/26 06:53:49;;;;;;;4.40;1.98;;;8.80;99.90;;;;;;4160178;28;20065;-71
2024/03/26 06:55:50;;;;;;;3.45;1.80;;;8.70;99.90;;;;;;4157014;28;20112;-70
2024/03/26 06:57:50;;;;;;;8.05;2.03;;;8.70;99.90;;;;;;4160014;28;20422;-70
2024/03/26 06:59:51;;;;;;;3.75;1.65;;;8.80;99.90;;;;;;4159358;28;20044;-70
2024/03/26 07:01:52;;;;;;;5.38;1.50;;;8.80;99.90;;;;;;4159214;28;20046;-69
2024/03/26 07:03:52;;;;;;;5.18;1.63;;;8.80;99.90;;;;;;4159653;28;20031;-70
2024/03/26 07:05:53;;;;;;;4.03;1.90;;;8.80;99.90;;;;;;4156486;28;20521;-70
2024/03/26 07:07:53;;;;;;;5.30;1.83;;;8.80;99.90;;;;;;4157760;28;20030;-70
2024/03/26 07:09:54;;;;;;;3.92;1.60;;;8.80;99.90;;;;;;4159978;28;20091;-70
2024/03/26 07:11:54;;;;;;;4.60;1.70;;;8.90;99.90;;;;;;4156166;28;20045;-70
2024/03/26 07:13:56;;;;;;;3.40;1.88;;;8.80;99.90;;;;;;4157943;28;20406;-70
2024/03/26 07:15:58;;;;;;;2.35;1.27;;;8.90;99.90;;;;;;4157124;28;20045;-71
2024/03/26 07:17:58;;;;;;;4.20;1.45;;;8.90;99.90;;;;;;4159167;28;20401;-70
2024/03/26 07:19:59;;;;;;;5.45;1.40;;;8.90;99.90;;;;;;4158317;28;20081;-70
2024/03/26 07:21:59;;;;;;;4.13;1.55;;;8.90;99.90;;;;;;4157240;28;20518;-70
2024/03/26 07:24:01;;;;;;;3.35;1.77;;;8.90;99.90;;;;;;4161030;28;20057;-63
2024/03/26 07:26:01;;;;;;;2.38;1.45;;;9.00;99.90;;;;;;4157142;28;20502;-63
2024/03/26 07:28:02;;;;;;;2.35;1.40;;;8.90;99.90;;;;;;4156403;28;20033;-63
2024/03/26 07:30:04;;;;;;;5.25;1.42;;;9.00;99.90;;;;;;4160452;28;20399;-65
2024/03/26 07:32:05;;;;;;;2.90;1.60;;;9.00;99.90;;;;;;4149311;28;20029;-63
2024/03/26 07:34:05;;;;;;;2.38;1.50;;;9.00;99.90;;;;;;4160439;28;20465;-63
2024/03/26 07:36:06;;;;;;;3.80;1.55;;;9.00;99.90;;;;;;4156472;28;20037;-63
2024/03/26 07:38:07;;;;;;;3.85;1.40;;;9.00;99.90;;;;;;4157111;28;20537;-63
2024/03/26 07:40:09;;;;;;;2.97;1.60;;;9.10;99.90;;;;;;4155720;28;20049;-66
2024/03/26 07:42:10;;;;;;;1.90;1.53;;;9.10;99.90;;;;;;4152069;28;20516;-63
2024/03/26 07:44:10;;;;;;;4.93;1.60;;;9.10;99.90;;;;;;4152218;28;20085;-63
2024/03/26 07:46:11;;;;;;;5.10;1.80;;;9.10;99.90;;;;;;4156228;28;20025;-63
2024/03/26 07:48:12;;;;;;;5.70;1.65;;;9.10;99.90;;;;;;4156170;28;20088;-63
2024/03/26 07:50:12;;;;;;;3.10;1.58;;;9.20;99.90;;;;;;4156378;28;20111;-64
2024/03/26 07:52:13;;;;;;;3.45;1.42;;;9.20;99.90;;;;;;4157228;28;20375;-63
2024/03/26 07:54:14;;;;;;;4.30;1.85;;;9.20;99.90;;;;;;4152725;28;20041;-64
2024/03/26 07:56:15;;;;;;;4.63;2.00;;;9.20;99.90;;;;;;4152713;28;20041;-63
2024/03/26 07:58:15;;;;;;;4.25;1.73;;;9.20;99.90;;;;;;4154737;28;20095;-64
2024/03/26 08:00:16;;;;;;;7.20;1.80;;;9.30;99.90;;;;;;4149387;28;21504;-64
2024/03/26 08:02:18;;;;;;;3.17;1.50;;;9.20;99.90;;;;;;4155281;28;20033;-63
2024/03/26 08:04:18;;;;;;;5.13;1.75;;;9.20;99.90;;;;;;4169951;28;20584;-64
2024/03/26 08:06:19;;;;;;;3.22;1.85;;;9.20;99.90;;;;;;4153409;28;20048;-63
2024/03/26 08:08:19;;;;;;;5.28;1.75;;;9.20;99.90;;;;;;4156309;28;20121;-63
2024/03/26 08:10:20;;;;;;;5.53;1.88;;;9.30;99.90;;;;;;4155363;28;20049;-63
2024/03/26 08:12:20;;;;;;;6.03;1.80;;;9.30;99.90;;;;;;4156380;28;20103;-63
2024/03/26 08:14:21;;;;;;;5.00;1.75;;;9.20;99.90;;;;;;4149473;28;20119;-63
2024/03/26 08:16:22;;;;;;;3.83;1.70;;;9.30;99.90;;;;;;4151719;28;20045;-64
2024/03/26 08:18:22;;;;;;;3.58;1.60;;;9.30;99.90;;;;;;4154867;28;20045;-63
2024/03/26 08:20:23;;;;;;;7.15;2.05;;;9.30;99.90;;;;;;4153509;28;20060;-63
2024/03/26 08:22:24;;;;;;;4.70;1.40;;;9.30;99.90;;;;;;4153637;28;20601;-63
2024/03/26 08:24:25;;;;;;;2.97;1.67;;;9.40;99.90;;;;;;4153826;28;20066;-63
2024/03/26 08:26:25;;;;;;;5.03;1.85;;;9.40;99.90;;;;;;4151878;28;20029;-63
2024/03/26 08:28:26;;;;;;;3.88;1.83;;;9.50;99.90;;;;;;4155091;28;20042;-63
2024/03/26 08:30:26;;;;;;;4.60;1.63;;;9.50;99.90;;;;;;4153131;28;20037;-63
2024/03/26 08:32:27;;;;;;;4.68;1.95;;;9.50;99.90;;;;;;4153619;28;20124;-63
2024/03/26 08:34:28;;;;;;;6.30;2.00;;;9.60;99.90;;;;;;4154615;28;20037;-65
2024/03/26 08:36:28;;;;;;;5.55;1.67;;;9.60;99.90;;;;;;4153626;28;20478;-64
2024/03/26 08:38:29;;;;;;;6.45;2.05;;;9.60;99.90;;;;;;4152203;28;20037;-64
2024/03/26 08:40:29;;;;;;;6.28;1.98;;;9.70;99.90;;;;;;4149421;28;20091;-64
2024/03/26 08:42:30;;;;;;;5.05;2.10;;;9.70;99.90;;;;;;4155719;28;20516;-64
2024/03/26 08:44:31;;;;;;;5.38;1.70;;;9.80;99.90;;;;;;4151137;28;20375;-65
2024/03/26 08:46:32;;;;;;;4.90;1.90;;;9.80;99.90;;;;;;4151263;28;20052;-64
2024/03/26 08:48:32;;;;;;;4.50;1.83;;;9.90;99.90;;;;;;4150082;28;20116;-66
2024/03/26 08:50:34;;;;;;;6.82;2.03;;;9.90;99.90;;;;;;4153603;28;20146;-65
2024/03/26 08:52:34;;;;;;;6.07;1.98;;;9.90;99.90;;;;;;4154774;28;20116;-64
2024/03/26 08:54:35;;;;;;;4.22;1.42;;;9.90;99.90;;;;;;4154596;28;20275;-64
2024/03/26 08:56:35;;;;;;;3.88;1.75;;;9.90;99.90;;;;;;4152075;28;20124;-64
2024/03/26 08:58:36;;;;;;;2.90;1.50;;;9.90;99.90;;;;;;4154195;28;20053;-64
2024/03/26 09:00:37;;;;;;;5.78;1.98;;;9.90;99.90;;;;;;4151049;28;20506;-64
2024/03/26 09:02:38;;;;;;;4.43;1.70;;;10.00;99.90;;;;;;4169038;28;20082;-64
2024/03/26 09:04:38;;;;;;;3.67;1.83;;;10.00;99.90;;;;;;4152078;28;20048;-64
2024/03/26 09:06:39;;;;;;;4.15;1.60;;;10.10;99.90;;;;;;4152812;28;20073;-64
2024/03/26 09:08:39;;;;;;;3.10;1.67;;;10.10;99.90;;;;;;4153469;28;20498;-64
2024/03/26 09:10:40;;;;;;;3.45;1.70;;;10.20;99.90;;;;;;4152800;28;20049;-64
2024/03/26 09:12:40;;;;;;;7.22;2.30;;;10.20;99.90;;;;;;4150283;28;20867;-64
2024/03/26 09:14:41;;;;;;;5.80;2.00;;;10.20;99.90;;;;;;4150498;28;20099;-64
2024/03/26 09:16:41;;;;;;;6.75;1.70;;;10.20;99.90;;;;;;4148941;28;20580;-64
2024/03/26 09:18:42;;;;;;;3.97;2.00;;;10.20;99.90;;;;;;4153385;28;20336;-64
2024/03/26 09:20:43;;;;;;;2.83;1.38;;;10.30;99.90;;;;;;4153532;28;20064;-64
2024/03/26 09:22:44;;;;;;;4.00;1.70;;;10.30;99.90;;;;;;4151545;28;20564;-64
2024/03/26 09:24:44;;;;;;;2.92;1.45;;;10.40;99.90;;;;;;4153844;28;20099;-64
2024/03/26 09:26:45;;;;;;;2.95;1.70;;;10.40;99.90;;;;;;4152575;28;20490;-64
2024/03/26 09:28:45;;;;;;;4.88;1.85;;;10.40;99.90;;;;;;4152434;28;20089;-64
2024/03/26 09:30:51;;;;;;;6.13;2.00;;;10.40;99.90;;;;;;4150138;28;20045;-63
2024/03/26 09:32:51;;;;;;;2.63;1.52;;;10.40;99.90;;;;;;4152244;28;20061;-64
2024/03/26 09:34:52;;;;;;;5.32;1.75;;;10.50;99.90;;;;;;4152669;28;20477;-64
2024/03/26 09:36:54;;;;;;;5.45;1.73;;;10.50;99.90;;;;;;4151916;28;20041;-64
2024/03/26 09:38:55;;;;;;;4.30;1.45;;;10.50;99.90;;;;;;4152957;28;20473;-64
2024/03/26 09:41:01;;;;;;;4.68;1.58;;;10.60;99.90;;;;;;4150709;28;20037;-64
2024/03/26 09:43:03;;;;;;;6.05;2.33;;;10.60;99.90;;;;;;4154268;28;20037;-64
2024/03/26 09:45:05;;;;;;;6.40;1.77;;;10.60;99.90;;;;;;4182866;28;20036;-61
2024/03/26 09:47:07;;;;;;;3.92;2.00;;;10.60;99.90;;;;;;4150682;28;20128;-59
2024/03/26 09:49:09;;;;;;;3.95;1.95;;;10.60;99.90;;;;;;4151720;28;20034;-58
2024/03/26 09:51:12;;;;;;;4.90;1.85;;;10.60;99.90;;;;;;4152711;28;20406;-58
2024/03/26 09:53:12;;;;;;;;;;;10.70;99.90;;;;;;4154393;28;20025;-59
2024/03/26 09:55:14;;;;;;;5.35;1.98;;;10.70;99.90;;;;;;4149420;28;19956;-57
2024/03/26 09:57:15;;;;;;;3.72;1.92;;;10.70;99.90;;;;;;4154073;28;20045;-59
2024/03/26 09:59:16;;;;;;;5.30;1.63;;;10.70;99.90;;;;;;4150957;28;20041;-59
2024/03/26 10:01:19;;;;;;;3.83;1.90;;;10.70;99.90;;;;;;4152700;28;20495;-59
2024/03/26 10:03:22;;;;;;;3.60;1.70;;;10.70;99.90;;;;;;4153043;28;20042;-59
2024/03/26 10:05:24;;;;;;;3.05;1.55;;;10.80;99.90;;;;;;4154045;28;20088;-59
2024/03/26 10:07:25;;;;;;;3.72;1.55;;;10.80;99.90;;;;;;4155410;28;20081;-59
2024/03/26 10:09:27;;;;;;;5.80;1.75;;;10.90;99.90;;;;;;4154278;28;20071;-59
2024/03/26 10:11:27;;;;;;;7.78;2.15;;;10.90;99.90;;;;;;4143141;28;20962;-59
2024/03/26 10:13:29;;;;;;;3.63;1.90;;;10.90;99.90;;;;;;4156736;28;20533;-59
2024/03/26 10:15:34;;;;;;;5.47;1.80;;;10.90;99.90;;;;;;4154856;28;20210;-64
2024/03/26 10:17:35;;;;;;;3.65;1.95;;;10.90;99.90;;;;;;4158909;28;20056;-64
2024/03/26 10:19:36;;;;;;;5.85;1.65;;;10.90;99.90;;;;;;4159217;28;20037;-64
2024/03/26 10:21:46;;;;;;;4.57;1.90;;;10.90;99.90;;;;;;4156891;28;20043;-59
2024/03/26 10:23:47;;;;;;;4.25;1.60;;;10.90;99.90;;;;;;4162302;28;20446;-64
2024/03/26 10:25:47;;;;;;;2.90;1.65;;;11.00;99.90;;;;;;4161184;28;20033;-65
2024/03/26 10:27:48;;;;;;;5.88;2.20;;;11.00;99.90;;;;;;4158292;28;20186;-59
2024/03/26 10:29:52;;;;;;;7.05;2.25;;;11.00;99.90;;;;;;4162836;28;20505;-59
2024/03/26 10:31:54;;;;;;;6.30;2.72;;;11.10;99.90;;;;;;4152155;28;20803;-74
2024/03/26 10:33:56;;;;;;;5.47;2.40;;;11.10;99.90;;;;;;4155637;28;20053;-76
2024/03/26 10:35:57;;;;;;;5.43;2.78;;;11.20;99.90;;;;;;4155901;28;20064;-76